Etusivu
METAR-TAF:

METAR-TAF

Lentoasemat :

Oujda, Marokko

Leveyspiiri: 34-47N, Pituuspiiri: 001-56W, korkeus merenpinnasta: 468 m

Tämänhetkinen sää

Tämä raportti tehtiin 24 minuuttia sitten, kello 14.00 UTC
Tuuli 12 kn luoteesta
Lämpötila 20°C
Kosteus 53%
Ilmanpaine 1026 hPa
Näkyvyys 10 km tai enemmän
Muutamia pilviä 3000 ft:n korkeudessa
Hajonneita pilviä 26000 ft:n korkeudessa

METAR: GMFO 181400Z 32012KT 9999 FEW030 BKN260 20/10 Q1026 NOSIG

Aika: 15:24 (14:24 UTC)

Sääennuste

Tämä raportti tehtiin 3 tuntia ja 24 minuuttia sitten, kello 11.00 UTC
Ennuste voimassa 18. päivästä klo 12 UTC - 19. päivään klo 18 UTC
Tuuli 4 kn luoteesta
Näkyvyys 10 km tai enemmän
ei pilviä alle 1500 m:ssä eikä cumulonimbus-pilviä

TAF: GMFO 181100Z 1812/1918 32004KT CAVOK

Säähavainnot ja -ennusteet yli 4000 lentoasemalta (METAR- ja TAF-raportit).

Käytössä olevat sääasemat on merkitty karttaan keltaisilla ja punaisilla pisteillä.

Aseta hiiri pisteen päälle nähdäksesi sääaseman nimen.

Klikkaa sitten nähdäksesi säähavainnot ja -ennusteet.

Kartan vaihtaminen: klikkaa mustalla rastilla varustettuja vihreitä pisteitä, niin voit zoomata sisään; viivalla varustettua vihreää pistettä, niin voit zoomata ulos tai vihreitä nuolia, niin pääset viereisille kartoille.


METAR-TAF: